Lake Arthur, Louisiana
Current Conditions -  °F | °C
As of 10:15 AM on Sunday 25 Jan 2015 (Local Time) from K3R7 Reporting Station
Clear Clear  
Wind Chill: 14°   Ceiling: Unl
Heat Index: 14°   Visibility: 10mi
Dew Point:   Wind: 7mph
Humidity: 64%   Direction: 220°SW
Pressure: 30.01"   Gusts: 17mph
Location:  30.08°N, 92.67°W
Report Text: K3R7 251615Z AUTO 22006G15KT 10SM CLR 14/07 A3001 RMK AO2 T01410073
Loading
Personal Weather Stations






























Interactive Weather Map New forecast layout! Learn more

10-Day Weather Forecast

Advertisements
Track Severe Weather on mobile